sensor_id;sensor_type;location;lat;lon;timestamp;pressure;altitude;pressure_sealevel;temperature;humidity
61484;BME280;47349;55.640;37.692;2023-03-13T00:02:13;97891.59;;;-4.58;89.62
61484;BME280;47349;55.640;37.692;2023-03-13T00:04:40;97869.97;;;-4.60;89.93
61484;BME280;47349;55.640;37.692;2023-03-13T00:07:08;97865.31;;;-4.56;90.31
61484;BME280;47349;55.640;37.692;2023-03-13T00:09:35;97877.81;;;-4.60;90.48
61484;BME280;47349;55.640;37.692;2023-03-13T00:12:02;97887.19;;;-4.57;89.71
61484;BME280;47349;55.640;37.692;2023-03-13T00:14:29;97889.66;;;-4.56;89.86
61484;BME280;47349;55.640;37.692;2023-03-13T00:16:56;97881.97;;;-4.57;90.00
61484;BME280;47349;55.640;37.692;2023-03-13T00:19:24;97884.44;;;-4.56;89.77
61484;BME280;47349;55.640;37.692;2023-03-13T00:21:51;97876.50;;;-4.54;90.47
61484;BME280;47349;55.640;37.692;2023-03-13T00:24:18;97894.66;;;-4.53;89.96
61484;BME280;47349;55.640;37.692;2023-03-13T00:26:46;97904.28;;;-4.53;91.29
61484;BME280;47349;55.640;37.692;2023-03-13T00:29:13;97904.66;;;-4.58;91.28
61484;BME280;47349;55.640;37.692;2023-03-13T00:31:40;97903.34;;;-4.52;91.60
61484;BME280;47349;55.640;37.692;2023-03-13T00:34:08;97901.09;;;-4.57;91.17
61484;BME280;47349;55.640;37.692;2023-03-13T00:36:36;97909.75;;;-4.56;90.81
61484;BME280;47349;55.640;37.692;2023-03-13T00:39:03;97915.13;;;-4.58;89.27
61484;BME280;47349;55.640;37.692;2023-03-13T00:41:33;97913.56;;;-4.60;90.66
61484;BME280;47349;55.640;37.692;2023-03-13T00:44:01;97916.22;;;-4.72;89.78
61484;BME280;47349;55.640;37.692;2023-03-13T00:46:29;97920.25;;;-4.68;90.47
61484;BME280;47349;55.640;37.692;2023-03-13T00:48:57;97926.44;;;-4.69;90.63
61484;BME280;47349;55.640;37.692;2023-03-13T00:51:24;97930.94;;;-4.71;90.79
61484;BME280;47349;55.640;37.692;2023-03-13T00:53:57;97944.97;;;-4.72;90.91
61484;BME280;47349;55.640;37.692;2023-03-13T00:56:27;97938.66;;;-4.69;91.13
61484;BME280;47349;55.640;37.692;2023-03-13T00:58:55;97942.22;;;-4.70;90.73
61484;BME280;47349;55.640;37.692;2023-03-13T01:01:26;97949.72;;;-4.66;91.25
61484;BME280;47349;55.640;37.692;2023-03-13T01:03:54;97945.31;;;-4.65;92.07
61484;BME280;47349;55.640;37.692;2023-03-13T01:06:23;97942.81;;;-4.67;90.35
61484;BME280;47349;55.640;37.692;2023-03-13T01:08:50;97959.47;;;-4.68;91.15
61484;BME280;47349;55.640;37.692;2023-03-13T01:11:18;97965.66;;;-4.69;91.16
61484;BME280;47349;55.640;37.692;2023-03-13T01:13:46;97971.94;;;-4.71;91.61
61484;BME280;47349;55.640;37.692;2023-03-13T01:16:14;97981.47;;;-4.81;91.42
61484;BME280;47349;55.640;37.692;2023-03-13T01:18:43;97982.28;;;-4.81;91.10
61484;BME280;47349;55.640;37.692;2023-03-13T01:21:11;97987.53;;;-4.81;91.76
61484;BME280;47349;55.640;37.692;2023-03-13T01:23:38;97987.75;;;-4.84;92.04
61484;BME280;47349;55.640;37.692;2023-03-13T01:26:05;97998.47;;;-4.87;92.04
61484;BME280;47349;55.640;37.692;2023-03-13T01:28:33;97994.19;;;-4.88;92.36
61484;BME280;47349;55.640;37.692;2023-03-13T01:31:01;98026.47;;;-4.89;92.21
61484;BME280;47349;55.640;37.692;2023-03-13T01:33:36;98007.97;;;-4.97;92.74
61484;BME280;47349;55.640;37.692;2023-03-13T01:36:03;98016.75;;;-4.98;92.12
61484;BME280;47349;55.640;37.692;2023-03-13T01:38:30;98031.00;;;-5.02;92.39
61484;BME280;47349;55.640;37.692;2023-03-13T01:40:57;98034.31;;;-5.00;92.55
61484;BME280;47349;55.640;37.692;2023-03-13T01:43:25;98036.34;;;-5.04;92.34
61484;BME280;47349;55.640;37.692;2023-03-13T01:45:57;98042.50;;;-5.05;93.16
61484;BME280;47349;55.640;37.692;2023-03-13T01:48:37;98054.88;;;-5.07;92.53
61484;BME280;47349;55.640;37.692;2023-03-13T01:51:17;98059.63;;;-5.12;93.06
61484;BME280;47349;55.640;37.692;2023-03-13T01:53:46;98062.09;;;-5.10;92.41
61484;BME280;47349;55.640;37.692;2023-03-13T01:56:26;98068.28;;;-5.11;92.83
61484;BME280;47349;55.640;37.692;2023-03-13T01:58:57;98067.81;;;-5.17;92.43
61484;BME280;47349;55.640;37.692;2023-03-13T02:01:26;98073.97;;;-5.18;93.28
61484;BME280;47349;55.640;37.692;2023-03-13T02:03:53;98078.13;;;-5.15;93.31
61484;BME280;47349;55.640;37.692;2023-03-13T02:06:23;98081.44;;;-5.13;93.00
61484;BME280;47349;55.640;37.692;2023-03-13T02:08:51;98089.63;;;-5.18;93.38
61484;BME280;47349;55.640;37.692;2023-03-13T02:11:26;98090.50;;;-5.17;92.93
61484;BME280;47349;55.640;37.692;2023-03-13T02:13:55;98095.22;;;-5.22;92.98
61484;BME280;47349;55.640;37.692;2023-03-13T02:16:26;98114.44;;;-5.23;91.84
61484;BME280;47349;55.640;37.692;2023-03-13T02:18:53;98103.28;;;-5.25;92.63
61484;BME280;47349;55.640;37.692;2023-03-13T02:21:32;98116.47;;;-5.27;93.15
61484;BME280;47349;55.640;37.692;2023-03-13T02:24:26;98118.13;;;-5.26;93.17
61484;BME280;47349;55.640;37.692;2023-03-13T02:26:49;98131.41;;;-5.29;92.80
61484;BME280;47349;55.640;37.692;2023-03-13T02:29:16;98130.78;;;-5.32;93.22
61484;BME280;47349;55.640;37.692;2023-03-13T02:31:45;98150.75;;;-5.31;93.18
61484;BME280;47349;55.640;37.692;2023-03-13T02:34:16;98133.31;;;-5.31;93.13
61484;BME280;47349;55.640;37.692;2023-03-13T02:36:44;98153.13;;;-5.28;92.99
61484;BME280;47349;55.640;37.692;2023-03-13T02:39:11;98148.13;;;-5.31;92.93
61484;BME280;47349;55.640;37.692;2023-03-13T02:41:40;98148.22;;;-5.33;93.25
61484;BME280;47349;55.640;37.692;2023-03-13T02:44:08;98172.69;;;-5.34;92.71
61484;BME280;47349;55.640;37.692;2023-03-13T02:46:48;98161.41;;;-5.34;92.09
61484;BME280;47349;55.640;37.692;2023-03-13T02:49:22;98165.34;;;-5.29;93.24
61484;BME280;47349;55.640;37.692;2023-03-13T02:51:50;98163.56;;;-5.28;93.02
61484;BME280;47349;55.640;37.692;2023-03-13T02:54:25;98172.22;;;-5.28;93.28
61484;BME280;47349;55.640;37.692;2023-03-13T02:56:54;98167.13;;;-5.29;93.42
61484;BME280;47349;55.640;37.692;2023-03-13T02:59:22;98179.00;;;-5.25;93.53
61484;BME280;47349;55.640;37.692;2023-03-13T03:01:49;98183.16;;;-5.23;93.57
61484;BME280;47349;55.640;37.692;2023-03-13T03:04:21;98186.00;;;-5.26;93.37
61484;BME280;47349;55.640;37.692;2023-03-13T03:06:54;98190.41;;;-5.26;93.00
61484;BME280;47349;55.640;37.692;2023-03-13T03:09:21;98191.44;;;-5.29;93.67
61484;BME280;47349;55.640;37.692;2023-03-13T03:11:52;98193.94;;;-5.27;93.62
61484;BME280;47349;55.640;37.692;2023-03-13T03:14:19;98190.50;;;-5.28;92.37
61484;BME280;47349;55.640;37.692;2023-03-13T03:16:47;98193.13;;;-5.28;92.94
61484;BME280;47349;55.640;37.692;2023-03-13T03:19:14;98194.81;;;-5.27;92.68
61484;BME280;47349;55.640;37.692;2023-03-13T03:21:42;98199.06;;;-5.26;93.53
61484;BME280;47349;55.640;37.692;2023-03-13T03:24:09;98213.91;;;-5.26;92.68
61484;BME280;47349;55.640;37.692;2023-03-13T03:26:36;98214.75;;;-5.26;92.76
61484;BME280;47349;55.640;37.692;2023-03-13T03:29:09;98219.47;;;-5.31;92.24
61484;BME280;47349;55.640;37.692;2023-03-13T03:31:37;98215.16;;;-5.32;92.24
61484;BME280;47349;55.640;37.692;2023-03-13T03:34:04;98219.47;;;-5.31;92.70
61484;BME280;47349;55.640;37.692;2023-03-13T03:36:32;98237.25;;;-5.36;93.01
61484;BME280;47349;55.640;37.692;2023-03-13T03:39:00;98235.81;;;-5.40;93.10
61484;BME280;47349;55.640;37.692;2023-03-13T03:41:28;98234.84;;;-5.39;92.15
61484;BME280;47349;55.640;37.692;2023-03-13T03:43:55;98243.00;;;-5.44;92.38
61484;BME280;47349;55.640;37.692;2023-03-13T03:46:27;98241.13;;;-5.42;92.47
61484;BME280;47349;55.640;37.692;2023-03-13T03:48:55;98250.72;;;-5.42;92.54
61484;BME280;47349;55.640;37.692;2023-03-13T03:51:23;98250.63;;;-5.40;93.15
61484;BME280;47349;55.640;37.692;2023-03-13T03:53:50;98246.47;;;-5.43;92.22
61484;BME280;47349;55.640;37.692;2023-03-13T03:56:19;98249.91;;;-5.43;92.28
61484;BME280;47349;55.640;37.692;2023-03-13T03:58:52;98262.75;;;-5.39;92.92
61484;BME280;47349;55.640;37.692;2023-03-13T04:01:31;98250.72;;;-5.42;93.02
61484;BME280;47349;55.640;37.692;2023-03-13T04:03:58;98260.47;;;-5.44;91.45
61484;BME280;47349;55.640;37.692;2023-03-13T04:06:26;98257.72;;;-5.43;92.70
61484;BME280;47349;55.640;37.692;2023-03-13T04:08:53;98257.13;;;-5.46;91.55
61484;BME280;47349;55.640;37.692;2023-03-13T04:11:24;98267.59;;;-5.46;91.85
61484;BME280;47349;55.640;37.692;2023-03-13T04:13:53;98278.03;;;-5.46;91.31
61484;BME280;47349;55.640;37.692;2023-03-13T04:16:21;98271.94;;;-5.47;91.73
61484;BME280;47349;55.640;37.692;2023-03-13T04:18:49;98287.94;;;-5.51;91.80
61484;BME280;47349;55.640;37.692;2023-03-13T04:21:17;98281.56;;;-5.47;90.99
61484;BME280;47349;55.640;37.692;2023-03-13T04:23:55;98282.31;;;-5.58;91.69
61484;BME280;47349;55.640;37.692;2023-03-13T04:26:23;98307.16;;;-5.52;91.64
61484;BME280;47349;55.640;37.692;2023-03-13T04:28:52;98297.53;;;-5.52;92.10
61484;BME280;47349;55.640;37.692;2023-03-13T04:31:31;98301.22;;;-5.54;91.75
61484;BME280;47349;55.640;37.692;2023-03-13T04:34:37;98298.81;;;-5.57;91.53
61484;BME280;47349;55.640;37.692;2023-03-13T04:37:07;98309.16;;;-5.56;91.46
61484;BME280;47349;55.640;37.692;2023-03-13T04:40:00;98315.81;;;-5.52;92.40
61484;BME280;47349;55.640;37.692;2023-03-13T04:42:45;98323.06;;;-5.55;92.12
61484;BME280;47349;55.640;37.692;2023-03-13T04:45:39;98322.09;;;-5.54;91.61
61484;BME280;47349;55.640;37.692;2023-03-13T04:48:32;98351.53;;;-5.52;92.11
61484;BME280;47349;55.640;37.692;2023-03-13T04:51:21;98360.19;;;-5.52;91.52
61484;BME280;47349;55.640;37.692;2023-03-13T04:53:57;98357.81;;;-5.55;91.21
61484;BME280;47349;55.640;37.692;2023-03-13T04:56:39;98364.06;;;-5.57;91.82
61484;BME280;47349;55.640;37.692;2023-03-13T04:59:19;98369.91;;;-5.54;91.58
61484;BME280;47349;55.640;37.692;2023-03-13T05:01:57;98380.25;;;-5.52;90.64
61484;BME280;47349;55.640;37.692;2023-03-13T05:04:54;98371.88;;;-5.45;90.99
61484;BME280;47349;55.640;37.692;2023-03-13T05:07:40;98368.66;;;-5.48;91.04
61484;BME280;47349;55.640;37.692;2023-03-13T05:10:26;98376.66;;;-5.38;90.48
61484;BME280;47349;55.640;37.692;2023-03-13T05:13:13;98380.34;;;-5.41;90.27
61484;BME280;47349;55.640;37.692;2023-03-13T05:15:52;98365.19;;;-5.36;89.49
61484;BME280;47349;55.640;37.692;2023-03-13T05:18:35;98395.25;;;-5.43;89.57
61484;BME280;47349;55.640;37.692;2023-03-13T05:21:13;98393.69;;;-5.33;89.21
61484;BME280;47349;55.640;37.692;2023-03-13T05:23:59;98396.59;;;-5.25;89.43
61484;BME280;47349;55.640;37.692;2023-03-13T05:26:47;98409.44;;;-5.22;88.54
61484;BME280;47349;55.640;37.692;2023-03-13T05:29:38;98408.06;;;-5.14;88.67
61484;BME280;47349;55.640;37.692;2023-03-13T05:32:07;98395.63;;;-5.11;87.46
61484;BME280;47349;55.640;37.692;2023-03-13T05:34:53;98414.28;;;-5.04;86.16
61484;BME280;47349;55.640;37.692;2023-03-13T05:37:39;98412.19;;;-4.99;87.81
61484;BME280;47349;55.640;37.692;2023-03-13T05:40:25;98412.69;;;-4.94;86.40
61484;BME280;47349;55.640;37.692;2023-03-13T05:43:11;98419.38;;;-4.90;86.80
61484;BME280;47349;55.640;37.692;2023-03-13T05:46:05;98432.84;;;-4.83;85.65
61484;BME280;47349;55.640;37.692;2023-03-13T05:48:52;98432.50;;;-4.79;85.59
61484;BME280;47349;55.640;37.692;2023-03-13T05:51:35;98425.38;;;-4.77;84.68
61484;BME280;47349;55.640;37.692;2023-03-13T05:54:25;98438.25;;;-4.74;84.94
61484;BME280;47349;55.640;37.692;2023-03-13T05:57:14;98431.63;;;-4.67;83.74
61484;BME280;47349;55.640;37.692;2023-03-13T06:00:01;98438.81;;;-4.57;83.78
61484;BME280;47349;55.640;37.692;2023-03-13T06:03:03;98434.78;;;-4.50;82.70
61484;BME280;47349;55.640;37.692;2023-03-13T06:05:39;98438.63;;;-4.43;83.22
61484;BME280;47349;55.640;37.692;2023-03-13T06:08:22;98440.13;;;-4.28;83.61
61484;BME280;47349;55.640;37.692;2023-03-13T06:10:49;98440.88;;;-4.15;83.94
61484;BME280;47349;55.640;37.692;2023-03-13T06:13:16;98444.31;;;-4.14;81.34
61484;BME280;47349;55.640;37.692;2023-03-13T06:15:52;98452.53;;;-4.07;81.94
61484;BME280;47349;55.640;37.692;2023-03-13T06:18:49;98453.78;;;-4.00;80.50
61484;BME280;47349;55.640;37.692;2023-03-13T06:21:16;98450.13;;;-3.86;81.41
61484;BME280;47349;55.640;37.692;2023-03-13T06:23:43;98456.06;;;-3.84;80.71
61484;BME280;47349;55.640;37.692;2023-03-13T06:26:10;98463.22;;;-3.75;79.92
61484;BME280;47349;55.640;37.692;2023-03-13T06:28:37;98466.81;;;-3.76;79.44
61484;BME280;47349;55.640;37.692;2023-03-13T06:31:05;98466.56;;;-3.73;78.49
61484;BME280;47349;55.640;37.692;2023-03-13T06:33:32;98463.25;;;-3.64;79.15
61484;BME280;47349;55.640;37.692;2023-03-13T06:36:00;98467.78;;;-3.55;79.09
61484;BME280;47349;55.640;37.692;2023-03-13T06:38:28;98473.63;;;-3.63;77.59
61484;BME280;47349;55.640;37.692;2023-03-13T06:40:55;98483.47;;;-3.66;77.19
61484;BME280;47349;55.640;37.692;2023-03-13T06:43:22;98486.25;;;-3.56;77.44
61484;BME280;47349;55.640;37.692;2023-03-13T06:45:49;98496.03;;;-3.47;78.27
61484;BME280;47349;55.640;37.692;2023-03-13T06:48:16;98488.88;;;-3.45;77.83
61484;BME280;47349;55.640;37.692;2023-03-13T06:50:43;98497.69;;;-3.35;77.33
61484;BME280;47349;55.640;37.692;2023-03-13T06:53:14;98499.34;;;-3.34;76.39
61484;BME280;47349;55.640;37.692;2023-03-13T06:55:42;98500.78;;;-3.30;76.22
61484;BME280;47349;55.640;37.692;2023-03-13T06:58:10;98504.84;;;-3.15;77.12
61484;BME280;47349;55.640;37.692;2023-03-13T07:00:56;98504.88;;;-3.03;76.52
61484;BME280;47349;55.640;37.692;2023-03-13T07:03:23;98512.72;;;-3.03;76.31
61484;BME280;47349;55.640;37.692;2023-03-13T07:05:59;98517.50;;;-2.97;75.70
61484;BME280;47349;55.640;37.692;2023-03-13T07:08:26;98517.50;;;-2.97;73.24
61484;BME280;47349;55.640;37.692;2023-03-13T07:10:56;98525.34;;;-2.86;74.69
61484;BME280;47349;55.640;37.692;2023-03-13T07:13:24;98531.06;;;-2.81;74.01
61484;BME280;47349;55.640;37.692;2023-03-13T07:15:51;98516.50;;;-2.63;73.87
61484;BME280;47349;55.640;37.692;2023-03-13T07:18:19;98531.53;;;-2.53;73.39
61484;BME280;47349;55.640;37.692;2023-03-13T07:20:53;98537.72;;;-2.54;72.13
61484;BME280;47349;55.640;37.692;2023-03-13T07:23:21;98534.75;;;-2.50;72.39
61484;BME280;47349;55.640;37.692;2023-03-13T07:25:55;98541.41;;;-2.57;72.30
61484;BME280;47349;55.640;37.692;2023-03-13T07:28:23;98547.84;;;-2.50;72.65
61484;BME280;47349;55.640;37.692;2023-03-13T07:30:50;98549.19;;;-2.55;73.15
61484;BME280;47349;55.640;37.692;2023-03-13T07:33:18;98552.00;;;-2.47;73.14
61484;BME280;47349;55.640;37.692;2023-03-13T07:35:49;98557.00;;;-2.22;73.95
61484;BME280;47349;55.640;37.692;2023-03-13T07:38:16;98565.56;;;-2.20;73.07
61484;BME280;47349;55.640;37.692;2023-03-13T07:40:48;98558.06;;;-2.24;71.56
61484;BME280;47349;55.640;37.692;2023-03-13T07:43:15;98576.66;;;-2.16;72.65
61484;BME280;47349;55.640;37.692;2023-03-13T07:45:54;98566.03;;;-2.15;73.74
61484;BME280;47349;55.640;37.692;2023-03-13T07:48:22;98587.97;;;-2.04;73.05
61484;BME280;47349;55.640;37.692;2023-03-13T07:50:49;98594.25;;;-1.96;73.18
61484;BME280;47349;55.640;37.692;2023-03-13T07:53:17;98591.34;;;-1.82;73.68
61484;BME280;47349;55.640;37.692;2023-03-13T07:58:19;98598.72;;;-1.75;72.73
61484;BME280;47349;55.640;37.692;2023-03-13T08:00:47;98612.03;;;-1.88;72.02
61484;BME280;47349;55.640;37.692;2023-03-13T08:03:14;98612.41;;;-2.04;72.45
61484;BME280;47349;55.640;37.692;2023-03-13T08:05:43;98603.72;;;-2.04;72.71
61484;BME280;47349;55.640;37.692;2023-03-13T08:08:10;98605.00;;;-1.99;73.65
61484;BME280;47349;55.640;37.692;2023-03-13T08:10:38;98606.91;;;-1.90;72.24
61484;BME280;47349;55.640;37.692;2023-03-13T08:13:05;98605.19;;;-1.79;72.40
61484;BME280;47349;55.640;37.692;2023-03-13T08:15:32;98608.53;;;-1.77;71.69
61484;BME280;47349;55.640;37.692;2023-03-13T08:17:59;98614.13;;;-1.71;73.22
61484;BME280;47349;55.640;37.692;2023-03-13T08:20:26;98606.53;;;-1.85;73.13
61484;BME280;47349;55.640;37.692;2023-03-13T08:22:54;98617.75;;;-1.94;73.16
61484;BME280;47349;55.640;37.692;2023-03-13T08:25:21;98612.00;;;-1.77;73.98
61484;BME280;47349;55.640;37.692;2023-03-13T08:27:48;98624.72;;;-1.61;73.46
61484;BME280;47349;55.640;37.692;2023-03-13T08:30:15;98619.31;;;-1.60;73.65
61484;BME280;47349;55.640;37.692;2023-03-13T08:32:42;98610.53;;;-1.70;73.16
61484;BME280;47349;55.640;37.692;2023-03-13T08:35:09;98622.59;;;-1.67;73.26
61484;BME280;47349;55.640;37.692;2023-03-13T08:37:36;98604.06;;;-1.54;74.22
61484;BME280;47349;55.640;37.692;2023-03-13T08:40:03;98618.56;;;-1.50;74.60
61484;BME280;47349;55.640;37.692;2023-03-13T08:42:36;98619.31;;;-1.60;73.78
61484;BME280;47349;55.640;37.692;2023-03-13T08:45:04;98625.72;;;-1.73;74.95
61484;BME280;47349;55.640;37.692;2023-03-13T08:47:31;98629.31;;;-1.86;74.63
61484;BME280;47349;55.640;37.692;2023-03-13T08:49:58;98620.28;;;-2.04;75.08
61484;BME280;47349;55.640;37.692;2023-03-13T08:52:25;98628.31;;;-2.05;76.18
61484;BME280;47349;55.640;37.692;2023-03-13T08:54:52;98640.47;;;-1.93;76.29
61484;BME280;47349;55.640;37.692;2023-03-13T08:57:19;98644.44;;;-1.67;77.32
61484;BME280;47349;55.640;37.692;2023-03-13T08:59:47;98652.53;;;-1.59;76.14
61484;BME280;47349;55.640;37.692;2023-03-13T09:02:15;98653.25;;;-1.57;76.27
61484;BME280;47349;55.640;37.692;2023-03-13T09:04:46;98627.59;;;-1.64;76.66
61484;BME280;47349;55.640;37.692;2023-03-13T09:07:14;98652.50;;;-1.47;77.32
61484;BME280;47349;55.640;37.692;2023-03-13T09:09:41;98664.66;;;-1.46;76.63
61484;BME280;47349;55.640;37.692;2023-03-13T09:12:08;98657.38;;;-1.43;76.06
61484;BME280;47349;55.640;37.692;2023-03-13T09:14:53;98651.59;;;-1.37;75.10
61484;BME280;47349;55.640;37.692;2023-03-13T09:17:20;98677.66;;;-1.34;76.10
61484;BME280;47349;55.640;37.692;2023-03-13T09:19:47;98672.31;;;-1.43;76.48
61484;BME280;47349;55.640;37.692;2023-03-13T09:22:26;98675.44;;;-1.49;77.31
61484;BME280;47349;55.640;37.692;2023-03-13T09:24:53;98676.97;;;-1.47;75.85
61484;BME280;47349;55.640;37.692;2023-03-13T09:27:20;98694.41;;;-1.46;76.03
61484;BME280;47349;55.640;37.692;2023-03-13T09:30:44;98682.53;;;-1.29;76.57
61484;BME280;47349;55.640;37.692;2023-03-13T09:33:11;98672.41;;;-1.34;76.31
61484;BME280;47349;55.640;37.692;2023-03-13T09:35:39;98698.53;;;-1.32;76.80
61484;BME280;47349;55.640;37.692;2023-03-13T09:38:06;98675.84;;;-1.33;77.87
61484;BME280;47349;55.640;37.692;2023-03-13T09:40:37;98680.78;;;-1.40;76.97
61484;BME280;47349;55.640;37.692;2023-03-13T09:43:11;98696.56;;;-1.40;77.23
61484;BME280;47349;55.640;37.692;2023-03-13T09:45:42;98711.22;;;-1.37;77.84
61484;BME280;47349;55.640;37.692;2023-03-13T09:48:28;98726.31;;;-1.39;77.66
61484;BME280;47349;55.640;37.692;2023-03-13T09:53:30;98701.72;;;-1.49;77.49
61484;BME280;47349;55.640;37.692;2023-03-13T09:55:59;98712.25;;;-1.49;77.71
61484;BME280;47349;55.640;37.692;2023-03-13T09:58:26;98712.81;;;-1.46;78.83
61484;BME280;47349;55.640;37.692;2023-03-13T10:00:59;98711.47;;;-1.40;78.41
61484;BME280;47349;55.640;37.692;2023-03-13T10:03:28;98706.81;;;-1.37;78.71
61484;BME280;47349;55.640;37.692;2023-03-13T10:05:58;98706.69;;;-1.35;78.42
61484;BME280;47349;55.640;37.692;2023-03-13T10:08:26;98701.22;;;-1.43;78.21
61484;BME280;47349;55.640;37.692;2023-03-13T10:11:03;98716.72;;;-1.40;78.39
61484;BME280;47349;55.640;37.692;2023-03-13T10:18:46;98731.94;;;-1.44;79.58
61484;BME280;47349;55.640;37.692;2023-03-13T10:21:18;98749.50;;;-1.44;78.96
61484;BME280;47349;55.640;37.692;2023-03-13T10:26:18;98746.19;;;-1.69;80.50
61484;BME280;47349;55.640;37.692;2023-03-13T10:28:47;98743.78;;;-1.61;81.48
61484;BME280;47349;55.640;37.692;2023-03-13T10:31:26;98745.94;;;-1.54;81.30
61484;BME280;47349;55.640;37.692;2023-03-13T10:34:06;98751.19;;;-1.54;80.97
61484;BME280;47349;55.640;37.692;2023-03-13T10:36:41;98769.56;;;-1.66;79.50
61484;BME280;47349;55.640;37.692;2023-03-13T10:39:14;98751.53;;;-1.70;79.56
61484;BME280;47349;55.640;37.692;2023-03-13T10:41:42;98767.78;;;-1.76;79.82
61484;BME280;47349;55.640;37.692;2023-03-13T10:44:16;98779.38;;;-1.79;80.56
61484;BME280;47349;55.640;37.692;2023-03-13T10:46:45;98763.59;;;-1.79;81.48
61484;BME280;47349;55.640;37.692;2023-03-13T10:49:16;98770.06;;;-1.83;80.87
61484;BME280;47349;55.640;37.692;2023-03-13T10:51:48;98766.97;;;-1.88;81.23
61484;BME280;47349;55.640;37.692;2023-03-13T10:54:34;98779.63;;;-1.82;81.53
61484;BME280;47349;55.640;37.692;2023-03-13T10:59:45;98797.16;;;-1.94;78.90
61484;BME280;47349;55.640;37.692;2023-03-13T11:02:32;98785.81;;;-1.94;80.57
61484;BME280;47349;55.640;37.692;2023-03-13T11:05:02;98824.38;;;-1.95;80.63
61484;BME280;47349;55.640;37.692;2023-03-13T11:07:48;98792.16;;;-1.97;82.03
61484;BME280;47349;55.640;37.692;2023-03-13T11:12:47;98801.09;;;-1.99;81.91
61484;BME280;47349;55.640;37.692;2023-03-13T11:15:15;98813.50;;;-1.90;81.49
61484;BME280;47349;55.640;37.692;2023-03-13T11:17:42;98813.63;;;-1.81;81.77
61484;BME280;47349;55.640;37.692;2023-03-13T11:20:16;98800.75;;;-1.72;81.19
61484;BME280;47349;55.640;37.692;2023-03-13T11:23:04;98834.78;;;-1.82;79.51
61484;BME280;47349;55.640;37.692;2023-03-13T11:25:34;98846.25;;;-1.83;80.99
61484;BME280;47349;55.640;37.692;2023-03-13T11:30:49;98811.50;;;-1.87;78.92
61484;BME280;47349;55.640;37.692;2023-03-13T11:33:24;98844.41;;;-1.94;79.06
61484;BME280;47349;55.640;37.692;2023-03-13T11:38:28;98815.56;;;-1.83;80.48
61484;BME280;47349;55.640;37.692;2023-03-13T11:41:04;98834.53;;;-1.79;78.01
61484;BME280;47349;55.640;37.692;2023-03-13T11:56:56;98865.72;;;-1.52;75.93
61484;BME280;47349;55.640;37.692;2023-03-13T11:59:27;98887.81;;;-1.43;76.99
61484;BME280;47349;55.640;37.692;2023-03-13T12:04:43;98851.31;;;-0.92;74.88
61484;BME280;47349;55.640;37.692;2023-03-13T12:07:29;98866.03;;;-1.00;76.63
61484;BME280;47349;55.640;37.692;2023-03-13T12:15:23;98874.41;;;-1.18;84.20
61484;BME280;47349;55.640;37.692;2023-03-13T12:20:24;98881.69;;;-1.10;86.14
61484;BME280;47349;55.640;37.692;2023-03-13T12:23:15;98872.94;;;-0.99;85.90
61484;BME280;47349;55.640;37.692;2023-03-13T12:25:48;98867.91;;;-0.91;85.42
61484;BME280;47349;55.640;37.692;2023-03-13T12:33:47;98884.50;;;-0.80;75.95
61484;BME280;47349;55.640;37.692;2023-03-13T12:36:30;98864.38;;;-1.01;75.59
61484;BME280;47349;55.640;37.692;2023-03-13T12:44:48;98877.88;;;-1.51;78.62
61484;BME280;47349;55.640;37.692;2023-03-13T12:47:32;98885.66;;;-1.27;81.08
61484;BME280;47349;55.640;37.692;2023-03-13T12:50:10;98905.25;;;-1.20;79.69
61484;BME280;47349;55.640;37.692;2023-03-13T13:00:42;98890.06;;;-0.62;78.01
61484;BME280;47349;55.640;37.692;2023-03-13T13:09:00;98892.91;;;-0.01;72.02
61484;BME280;47349;55.640;37.692;2023-03-13T13:16:44;98903.44;;;0.72;70.82
61484;BME280;47349;55.640;37.692;2023-03-13T13:24:50;98909.22;;;-0.28;69.91
61484;BME280;47349;55.640;37.692;2023-03-13T13:27:43;98914.03;;;-0.76;70.46
61484;BME280;47349;55.640;37.692;2023-03-13T13:32:55;98929.16;;;-1.23;71.33
61484;BME280;47349;55.640;37.692;2023-03-13T13:35:37;98955.66;;;-1.48;72.71
61484;BME280;47349;55.640;37.692;2023-03-13T13:38:27;98925.31;;;-1.64;71.69
61484;BME280;47349;55.640;37.692;2023-03-13T13:43:30;98937.22;;;-1.60;72.22
61484;BME280;47349;55.640;37.692;2023-03-13T13:46:14;98939.84;;;-1.60;72.11
61484;BME280;47349;55.640;37.692;2023-03-13T13:49:05;98958.50;;;-1.63;71.22
61484;BME280;47349;55.640;37.692;2023-03-13T13:51:34;98945.50;;;-1.64;71.93
61484;BME280;47349;55.640;37.692;2023-03-13T13:54:04;98948.22;;;-1.66;71.61
61484;BME280;47349;55.640;37.692;2023-03-13T13:57:05;98957.53;;;-1.73;71.92
61484;BME280;47349;55.640;37.692;2023-03-13T14:04:48;98946.63;;;-1.79;70.92
61484;BME280;47349;55.640;37.692;2023-03-13T14:07:19;98963.84;;;-1.75;71.21
61484;BME280;47349;55.640;37.692;2023-03-13T14:12:33;98973.50;;;-1.76;67.90
61484;BME280;47349;55.640;37.692;2023-03-13T14:17:41;98993.06;;;-1.80;66.63
61484;BME280;47349;55.640;37.692;2023-03-13T14:20:16;98975.66;;;-1.81;66.01
61484;BME280;47349;55.640;37.692;2023-03-13T14:22:45;98970.84;;;-1.87;66.56
61484;BME280;47349;55.640;37.692;2023-03-13T14:25:12;98966.44;;;-1.87;66.01
61484;BME280;47349;55.640;37.692;2023-03-13T14:27:43;98971.06;;;-1.90;65.53
61484;BME280;47349;55.640;37.692;2023-03-13T14:30:10;98959.75;;;-1.91;64.82
61484;BME280;47349;55.640;37.692;2023-03-13T14:32:38;98975.28;;;-1.88;65.41
61484;BME280;47349;55.640;37.692;2023-03-13T14:35:07;98965.81;;;-1.90;65.57
61484;BME280;47349;55.640;37.692;2023-03-13T14:40:14;98977.78;;;-1.86;66.13
61484;BME280;47349;55.640;37.692;2023-03-13T14:42:48;98982.81;;;-1.83;66.46
61484;BME280;47349;55.640;37.692;2023-03-13T14:45:34;98994.50;;;-1.87;66.65
61484;BME280;47349;55.640;37.692;2023-03-13T14:50:32;98995.88;;;-1.94;67.39
61484;BME280;47349;55.640;37.692;2023-03-13T14:53:02;99012.94;;;-2.00;65.51
61484;BME280;47349;55.640;37.692;2023-03-13T14:55:34;99013.19;;;-2.03;66.11
61484;BME280;47349;55.640;37.692;2023-03-13T15:00:45;99006.03;;;-2.01;67.22
61484;BME280;47349;55.640;37.692;2023-03-13T15:08:16;99019.28;;;-2.02;66.53
61484;BME280;47349;55.640;37.692;2023-03-13T15:10:44;99011.47;;;-2.04;67.53